createdAt,value
2022-11-14T00:01:16.921Z,21.45
2022-11-14T00:03:45.988Z,20.25
2022-11-14T00:06:14.643Z,18.35
2022-11-14T00:08:42.223Z,16.98
2022-11-14T00:11:10.326Z,17.50
2022-11-14T00:13:37.938Z,18.58
2022-11-14T00:16:05.719Z,18.48
2022-11-14T00:18:33.415Z,18.33
2022-11-14T00:21:02.788Z,17.20
2022-11-14T00:23:30.467Z,15.55
2022-11-14T00:25:59.050Z,16.75
2022-11-14T00:28:26.880Z,16.55
2022-11-14T00:30:54.657Z,16.02
2022-11-14T00:33:22.399Z,14.90
2022-11-14T00:35:54.084Z,15.45
2022-11-14T00:38:23.105Z,19.20
2022-11-14T00:40:50.845Z,17.67
2022-11-14T00:43:18.693Z,19.13
2022-11-14T00:45:46.826Z,22.20
2022-11-14T00:48:14.552Z,22.65
2022-11-14T00:50:42.516Z,18.42
2022-11-14T00:53:10.159Z,19.05
2022-11-14T00:55:39.268Z,19.88
2022-11-14T00:58:06.904Z,20.05
2022-11-14T01:00:34.777Z,21.92
2022-11-14T01:03:02.554Z,26.80
2022-11-14T01:05:30.250Z,17.25
2022-11-14T01:07:57.889Z,17.23
2022-11-14T01:10:25.746Z,16.90
2022-11-14T01:12:54.936Z,15.80
2022-11-14T01:15:22.589Z,18.95
2022-11-14T01:17:50.187Z,26.02
2022-11-14T01:20:18.190Z,26.08
2022-11-14T01:22:45.786Z,17.88
2022-11-14T01:25:13.488Z,17.70
2022-11-14T01:27:41.163Z,18.45
2022-11-14T01:30:10.694Z,15.48
2022-11-14T01:32:38.288Z,14.55
2022-11-14T01:35:06.117Z,21.08
2022-11-14T01:37:33.742Z,17.77
2022-11-14T01:40:01.602Z,19.00
2022-11-14T01:42:29.732Z,24.90
2022-11-14T01:44:57.344Z,16.13
2022-11-14T01:47:28.335Z,16.52
2022-11-14T01:49:57.067Z,18.25
2022-11-14T01:52:26.662Z,30.83
2022-11-14T01:54:55.814Z,15.88
2022-11-14T01:57:24.969Z,18.27
2022-11-14T01:59:53.732Z,17.20
2022-11-14T02:02:22.633Z,17.88
2022-11-14T02:04:52.944Z,32.35
2022-11-14T02:07:20.853Z,17.00
2022-11-14T02:09:49.545Z,16.90
2022-11-14T02:12:18.568Z,16.00
2022-11-14T02:14:48.014Z,18.33
2022-11-14T02:17:32.216Z,18.17
2022-11-14T02:20:07.082Z,17.42
2022-11-14T02:22:34.739Z,17.33
2022-11-14T02:25:02.548Z,14.05
2022-11-14T02:27:30.674Z,19.15
2022-11-14T02:30:04.217Z,13.45
2022-11-14T02:32:45.111Z,13.60
2022-11-14T02:35:20.813Z,13.38
2022-11-14T02:37:48.439Z,13.48
2022-11-14T02:40:16.143Z,17.00
2022-11-14T02:42:43.829Z,24.98
2022-11-14T02:45:11.978Z,15.07
2022-11-14T02:47:39.563Z,16.70
2022-11-14T02:50:07.396Z,13.50
2022-11-14T02:52:36.357Z,12.95
2022-11-14T02:55:04.248Z,12.15
2022-11-14T02:57:31.907Z,13.90
2022-11-14T02:59:59.639Z,16.30
2022-11-14T03:02:27.240Z,12.20
2022-11-14T03:04:55.260Z,13.23
2022-11-14T03:07:22.924Z,12.32
2022-11-14T03:09:51.884Z,13.13
2022-11-14T03:12:20.073Z,14.00
2022-11-14T03:14:47.755Z,12.60
2022-11-14T03:17:15.497Z,11.68
2022-11-14T03:19:43.221Z,12.82
2022-11-14T03:22:10.856Z,13.60
2022-11-14T03:24:38.471Z,13.77
2022-11-14T03:27:07.491Z,13.25
2022-11-14T03:29:35.072Z,13.65
2022-11-14T03:32:02.785Z,13.48
2022-11-14T03:34:30.995Z,14.13
2022-11-14T03:36:58.746Z,12.65
2022-11-14T03:39:26.410Z,12.77
2022-11-14T03:41:54.160Z,13.60
2022-11-14T03:44:23.220Z,14.10
2022-11-14T03:46:52.159Z,12.05
2022-11-14T03:49:19.868Z,13.18
2022-11-14T03:51:47.464Z,12.40
2022-11-14T03:54:15.068Z,13.18
2022-11-14T03:56:42.721Z,13.18
2022-11-14T03:59:10.326Z,12.20
2022-11-14T04:01:39.297Z,13.02
2022-11-14T04:04:07.061Z,13.60
2022-11-14T04:06:34.703Z,13.07
2022-11-14T04:09:02.358Z,13.50
2022-11-14T04:11:29.955Z,14.32
2022-11-14T04:13:57.569Z,15.88
2022-11-14T04:16:25.128Z,17.30
2022-11-14T04:18:54.148Z,16.23
2022-11-14T04:21:22.135Z,16.90
2022-11-14T04:23:49.795Z,13.00
2022-11-14T04:26:17.363Z,15.18
2022-11-14T04:28:45.017Z,13.80
2022-11-14T04:31:12.600Z,14.93
2022-11-14T04:33:41.481Z,13.05
2022-11-14T04:36:10.757Z,13.85
2022-11-14T04:38:39.717Z,14.15
2022-11-14T04:41:07.361Z,12.07
2022-11-14T04:43:35.104Z,13.63
2022-11-14T04:46:02.704Z,13.00
2022-11-14T04:48:30.513Z,11.73
2022-11-14T04:50:58.453Z,12.38
2022-11-14T04:53:27.430Z,12.10
2022-11-14T04:55:55.117Z,12.80
2022-11-14T04:58:22.742Z,14.60
2022-11-14T05:00:50.471Z,13.65
2022-11-14T05:03:18.649Z,14.15
2022-11-14T05:05:46.615Z,14.63
2022-11-14T05:08:14.242Z,13.88
2022-11-14T05:10:45.414Z,14.15
2022-11-14T05:13:13.327Z,14.60
2022-11-14T05:15:40.943Z,15.55
2022-11-14T05:18:08.543Z,16.15
2022-11-14T05:20:36.151Z,17.50
2022-11-14T05:23:03.773Z,17.45
2022-11-14T05:25:31.590Z,15.40
2022-11-14T05:28:00.568Z,14.10
2022-11-14T05:30:28.191Z,15.25
2022-11-14T05:32:58.415Z,14.25
2022-11-14T05:35:26.247Z,14.85
2022-11-14T05:37:58.801Z,15.13
2022-11-14T05:40:27.714Z,15.15
2022-11-14T05:42:56.123Z,15.30
2022-11-14T05:45:25.093Z,14.90
2022-11-14T05:47:53.833Z,14.57
2022-11-14T05:50:21.579Z,13.63
2022-11-14T05:52:49.321Z,16.42
2022-11-14T05:55:21.853Z,16.45
2022-11-14T05:57:52.194Z,15.73
2022-11-14T06:00:19.947Z,15.85
2022-11-14T06:02:48.881Z,15.82
2022-11-14T06:05:16.572Z,15.35
2022-11-14T06:07:44.167Z,14.52
2022-11-14T06:10:11.974Z,15.05
2022-11-14T06:12:39.656Z,17.33
2022-11-14T06:15:07.749Z,16.08
2022-11-14T06:17:35.352Z,15.30
2022-11-14T06:20:04.913Z,17.65
2022-11-14T06:22:33.344Z,15.90
2022-11-14T06:25:01.004Z,15.88
2022-11-14T06:27:28.706Z,14.45
2022-11-14T06:29:56.384Z,13.25
2022-11-14T06:32:24.747Z,15.85
2022-11-14T06:34:52.399Z,15.10
2022-11-14T06:37:21.458Z,15.07
2022-11-14T06:39:49.084Z,17.75
2022-11-14T06:42:16.828Z,19.13
2022-11-14T06:44:44.478Z,16.02
2022-11-14T06:47:12.095Z,15.75
2022-11-14T06:49:40.874Z,14.38
2022-11-14T06:52:08.631Z,14.68
2022-11-14T06:54:37.859Z,15.23
2022-11-14T06:57:05.529Z,14.52
2022-11-14T06:59:33.207Z,16.00
2022-11-14T07:02:00.989Z,16.27
2022-11-14T07:04:28.631Z,16.20
2022-11-14T07:06:56.315Z,19.45
2022-11-14T07:09:23.933Z,17.80
2022-11-14T07:11:52.950Z,14.75
2022-11-14T07:14:20.558Z,17.17
2022-11-14T07:16:48.206Z,15.75
2022-11-14T07:19:15.803Z,14.70
2022-11-14T07:21:43.393Z,16.95
2022-11-14T07:24:11.150Z,17.48
2022-11-14T07:26:38.799Z,18.17
2022-11-14T07:29:07.818Z,17.50
2022-11-14T07:31:35.465Z,18.90
2022-11-14T07:34:03.204Z,20.42
2022-11-14T07:36:30.835Z,20.65
2022-11-14T07:38:58.642Z,16.67
2022-11-14T07:41:26.426Z,15.32
2022-11-14T07:43:54.134Z,16.05
2022-11-14T07:46:23.104Z,17.17
2022-11-14T07:48:50.895Z,16.30
2022-11-14T07:51:19.389Z,16.70
2022-11-14T07:53:47.031Z,16.00
2022-11-14T07:56:17.165Z,15.50
2022-11-14T07:58:44.919Z,16.77
2022-11-14T08:01:14.226Z,14.90
2022-11-14T08:03:46.082Z,14.77
2022-11-14T08:06:17.326Z,14.88
2022-11-14T08:08:45.004Z,15.38
2022-11-14T08:11:12.712Z,16.05
2022-11-14T08:13:40.340Z,14.60
2022-11-14T08:16:12.935Z,16.45
2022-11-14T08:18:43.061Z,14.95
2022-11-14T08:21:10.942Z,15.40
2022-11-14T08:23:38.866Z,14.30
2022-11-14T08:26:06.703Z,16.77
2022-11-14T08:28:34.520Z,16.30
2022-11-14T08:31:02.719Z,16.00
2022-11-14T08:33:30.700Z,17.02
2022-11-14T08:36:02.521Z,18.45
2022-11-14T08:38:31.683Z,17.48
2022-11-14T08:40:59.946Z,18.33
2022-11-14T08:43:27.611Z,15.60
2022-11-14T08:46:01.055Z,13.88
2022-11-14T08:48:29.582Z,15.25
2022-11-14T08:50:57.447Z,12.35
2022-11-14T08:53:26.486Z,14.88
2022-11-14T08:55:54.112Z,15.95
2022-11-14T08:58:21.876Z,13.90
2022-11-14T09:00:52.122Z,14.90
2022-11-14T09:03:19.953Z,15.45
2022-11-14T09:05:52.262Z,15.73
2022-11-14T09:08:20.095Z,16.67
2022-11-14T09:10:49.069Z,16.83
2022-11-14T09:13:16.672Z,13.30
2022-11-14T09:15:44.498Z,15.82
2022-11-14T09:18:12.623Z,13.75
2022-11-14T09:20:40.705Z,14.32
2022-11-14T09:23:08.839Z,12.82
2022-11-14T09:25:36.909Z,15.15
2022-11-14T09:28:06.613Z,15.85
2022-11-14T09:30:34.372Z,14.07
2022-11-14T09:33:05.757Z,14.95
2022-11-14T09:35:38.120Z,16.67
2022-11-14T09:38:06.784Z,15.80
2022-11-14T09:40:40.784Z,17.40
2022-11-14T09:43:19.166Z,18.20
2022-11-14T09:45:49.958Z,20.83
2022-11-14T09:48:19.502Z,15.48
2022-11-14T09:50:49.569Z,18.02
2022-11-14T09:53:20.588Z,16.80
2022-11-14T09:55:48.173Z,14.85
2022-11-14T09:58:19.628Z,15.68
2022-11-14T10:00:51.503Z,16.48
2022-11-14T10:03:24.768Z,15.95
2022-11-14T10:06:00.184Z,13.93
2022-11-14T10:10:56.648Z,14.23
2022-11-14T10:13:39.851Z,12.80
2022-11-14T10:16:12.331Z,14.20
2022-11-14T10:18:45.593Z,12.95
2022-11-14T10:21:30.709Z,14.90
2022-11-14T10:24:00.920Z,15.18
2022-11-14T10:26:30.328Z,13.63
2022-11-14T10:29:15.576Z,13.70
2022-11-14T10:31:47.591Z,13.90
2022-11-14T10:34:18.674Z,14.02
2022-11-14T10:36:57.532Z,13.75
2022-11-14T10:39:27.566Z,11.65
2022-11-14T10:42:00.917Z,12.40
2022-11-14T10:44:33.785Z,15.60
2022-11-14T10:47:05.259Z,16.25
2022-11-14T10:49:36.105Z,14.20
2022-11-14T10:52:05.991Z,14.63
2022-11-14T10:54:37.422Z,13.02
2022-11-14T10:57:05.023Z,13.13
2022-11-14T10:59:32.609Z,12.82
2022-11-14T11:02:00.400Z,14.45
2022-11-14T11:04:30.183Z,13.57
2022-11-14T11:06:58.679Z,12.43
2022-11-14T11:09:46.037Z,12.35
2022-11-14T11:12:17.097Z,13.10
2022-11-14T11:14:45.272Z,13.60
2022-11-14T11:17:37.152Z,14.30
2022-11-14T11:20:25.494Z,12.25
2022-11-14T11:23:03.416Z,13.40
2022-11-14T11:25:33.213Z,13.07
2022-11-14T11:28:08.817Z,12.35
2022-11-14T11:30:36.521Z,13.18
2022-11-14T11:33:17.758Z,12.70
2022-11-14T11:35:47.874Z,11.95
2022-11-14T11:38:22.887Z,12.20
2022-11-14T11:40:53.449Z,10.75
2022-11-14T11:43:41.851Z,13.40
2022-11-14T11:46:17.738Z,11.50
2022-11-14T11:48:47.514Z,11.45
2022-11-14T11:51:18.172Z,13.07
2022-11-14T11:53:47.945Z,13.63
2022-11-14T11:56:17.675Z,14.65
2022-11-14T11:58:47.088Z,10.88
2022-11-14T12:01:15.501Z,14.57
2022-11-14T12:03:44.746Z,13.95
2022-11-14T12:06:15.385Z,13.10
2022-11-14T12:08:49.170Z,13.35
2022-11-14T12:11:18.281Z,12.45
2022-11-14T12:14:07.079Z,13.57
2022-11-14T12:16:58.886Z,11.60
2022-11-14T12:19:38.937Z,14.55
2022-11-14T12:22:17.167Z,13.45
2022-11-14T12:24:55.661Z,14.52
2022-11-14T12:27:26.554Z,12.25
2022-11-14T12:30:04.381Z,11.70
2022-11-14T12:32:33.464Z,11.00
2022-11-14T12:35:04.292Z,12.13
2022-11-14T12:37:33.816Z,12.05
2022-11-14T12:40:03.840Z,12.25
2022-11-14T12:42:32.622Z,11.20
2022-11-14T12:45:00.469Z,12.75
2022-11-14T12:47:28.537Z,12.75
2022-11-14T12:50:00.750Z,14.57
2022-11-14T12:52:43.865Z,12.48
2022-11-14T12:55:26.426Z,12.25
2022-11-14T12:58:00.740Z,11.43
2022-11-14T13:00:29.338Z,11.35
2022-11-14T13:03:15.029Z,13.70
2022-11-14T13:05:56.500Z,13.95
2022-11-14T13:08:45.172Z,12.02
2022-11-14T13:11:54.804Z,11.45
2022-11-14T13:14:41.539Z,12.85
2022-11-14T13:17:38.601Z,11.85
2022-11-14T13:20:42.817Z,13.00
2022-11-14T13:23:25.296Z,12.27
2022-11-14T13:26:26.826Z,10.77
2022-11-14T13:28:54.706Z,12.40
2022-11-14T13:31:24.585Z,12.65
2022-11-14T13:33:53.525Z,14.00
2022-11-14T13:36:27.809Z,12.20
2022-11-14T13:39:05.288Z,11.10
2022-11-14T13:41:51.732Z,13.10
2022-11-14T13:44:27.735Z,13.20
2022-11-14T13:47:18.281Z,12.23
2022-11-14T13:49:53.700Z,12.98
2022-11-14T13:54:49.373Z,12.98
2022-11-14T13:57:23.720Z,14.10
2022-11-14T13:59:56.926Z,12.52
2022-11-14T14:02:46.242Z,13.75
2022-11-14T14:05:20.815Z,13.13
2022-11-14T14:07:53.964Z,13.10
2022-11-14T14:10:26.378Z,13.15
2022-11-14T14:13:00.518Z,12.90
2022-11-14T14:15:30.793Z,12.65
2022-11-14T14:18:05.533Z,12.88
2022-11-14T14:20:37.742Z,14.15
2022-11-14T14:23:13.030Z,11.95
2022-11-14T14:25:44.784Z,12.98
2022-11-14T14:28:16.610Z,12.63
2022-11-14T14:30:59.058Z,14.13
2022-11-14T14:33:30.200Z,13.07
2022-11-14T14:35:57.795Z,13.13
2022-11-14T14:38:26.877Z,14.45
2022-11-14T14:40:55.901Z,13.30
2022-11-14T14:43:25.662Z,11.40
2022-11-14T14:45:54.060Z,13.07
2022-11-14T14:48:27.093Z,12.32
2022-11-14T14:50:56.679Z,14.45
2022-11-14T14:53:25.017Z,12.70
2022-11-14T14:55:54.111Z,12.23
2022-11-14T14:58:26.169Z,13.25
2022-11-14T15:00:55.656Z,12.32
2022-11-14T15:03:23.885Z,12.10
2022-11-14T15:05:59.503Z,14.00
2022-11-14T15:08:28.778Z,12.50
2022-11-14T15:10:58.836Z,13.90
2022-11-14T15:13:28.006Z,12.52
2022-11-14T15:15:55.780Z,12.77
2022-11-14T15:18:25.099Z,13.68
2022-11-14T15:21:10.306Z,12.00
2022-11-14T15:23:39.834Z,13.48
2022-11-14T15:26:13.019Z,13.90
2022-11-14T15:28:40.876Z,14.05
2022-11-14T15:31:16.565Z,10.77
2022-11-14T15:33:44.411Z,13.80
2022-11-14T15:36:13.097Z,13.55
2022-11-14T15:38:58.997Z,11.85
2022-11-14T15:41:28.011Z,13.02
2022-11-14T15:44:01.843Z,11.40
2022-11-14T15:46:39.369Z,13.02
2022-11-14T15:49:11.015Z,13.32
2022-11-14T15:51:45.847Z,13.13
2022-11-14T15:54:25.807Z,12.88
2022-11-14T15:56:54.181Z,12.60
2022-11-14T15:59:21.832Z,11.88
2022-11-14T16:01:51.455Z,13.52
2022-11-14T16:04:19.832Z,13.02
2022-11-14T16:06:47.719Z,14.23
2022-11-14T16:09:16.291Z,14.15
2022-11-14T16:11:47.691Z,12.68
2022-11-14T16:14:16.656Z,12.27
2022-11-14T16:16:44.261Z,14.45
2022-11-14T16:19:13.814Z,13.00
2022-11-14T16:21:41.679Z,13.02
2022-11-14T16:24:14.798Z,13.77
2022-11-14T16:26:42.420Z,13.00
2022-11-14T16:29:11.517Z,13.77
2022-11-14T16:31:39.174Z,13.85
2022-11-14T16:34:07.191Z,13.10
2022-11-14T16:36:34.845Z,13.80
2022-11-14T16:39:03.150Z,14.70
2022-11-14T16:41:30.972Z,14.38
2022-11-14T16:43:58.772Z,14.43
2022-11-14T16:46:27.817Z,14.18
2022-11-14T16:48:55.759Z,14.43
2022-11-14T16:54:12.175Z,11.80
2022-11-14T16:56:39.984Z,13.13
2022-11-14T16:59:07.910Z,12.90
2022-11-14T17:01:37.589Z,15.32
2022-11-14T17:04:05.425Z,14.82
2022-11-14T17:06:33.058Z,13.45
2022-11-14T17:09:00.994Z,15.68
2022-11-14T17:11:28.636Z,19.13
2022-11-14T17:13:56.450Z,14.82
2022-11-14T17:16:24.249Z,14.23
2022-11-14T17:18:53.948Z,16.63
2022-11-14T17:21:22.142Z,17.23
2022-11-14T17:23:54.322Z,17.50
2022-11-14T17:26:21.993Z,17.23
2022-11-14T17:28:49.760Z,16.85
2022-11-14T17:31:17.585Z,17.90
2022-11-14T17:33:50.827Z,19.05
2022-11-14T17:36:19.864Z,16.77
2022-11-14T17:38:47.527Z,16.85
2022-11-14T17:41:15.548Z,17.52
2022-11-14T17:43:43.649Z,19.50
2022-11-14T17:46:15.967Z,20.55
2022-11-14T17:48:44.375Z,21.63
2022-11-14T17:51:13.099Z,21.38
2022-11-14T17:53:42.332Z,18.55
2022-11-14T17:56:12.119Z,20.42
2022-11-14T17:58:39.835Z,18.83
2022-11-14T18:01:10.017Z,23.02
2022-11-14T18:03:37.893Z,18.48
2022-11-14T18:06:06.232Z,19.50
2022-11-14T18:08:34.689Z,20.85
2022-11-14T18:11:04.049Z,20.88
2022-11-14T18:13:31.750Z,21.55
2022-11-14T18:16:01.670Z,18.90
2022-11-14T18:18:31.847Z,18.02
2022-11-14T18:20:59.820Z,17.65
2022-11-14T18:23:27.597Z,17.70
2022-11-14T18:25:55.234Z,18.13
2022-11-14T18:28:24.249Z,17.55
2022-11-14T18:30:55.927Z,15.07
2022-11-14T18:33:23.658Z,16.58
2022-11-14T18:35:57.947Z,14.55
2022-11-14T18:38:25.745Z,14.25
2022-11-14T18:40:57.310Z,14.73
2022-11-14T18:43:26.813Z,16.25
2022-11-14T18:45:54.493Z,15.45
2022-11-14T18:48:22.140Z,17.40
2022-11-14T18:50:50.149Z,17.17
2022-11-14T18:53:17.768Z,14.45
2022-11-14T18:55:45.794Z,18.77
2022-11-14T18:58:14.623Z,17.85
2022-11-14T19:00:45.224Z,17.55
2022-11-14T19:03:14.368Z,16.98
2022-11-14T19:05:42.011Z,17.42
2022-11-14T19:08:09.639Z,17.70
2022-11-14T19:10:38.015Z,16.20
2022-11-14T19:13:05.893Z,17.67
2022-11-14T19:15:33.688Z,16.73
2022-11-14T19:18:02.822Z,18.42
2022-11-14T19:20:30.683Z,17.92
2022-11-14T19:22:58.472Z,14.85
2022-11-14T19:25:26.218Z,14.73
2022-11-14T19:27:56.142Z,15.77
2022-11-14T19:30:23.769Z,16.63
2022-11-14T19:32:51.402Z,18.20
2022-11-14T19:35:20.888Z,16.90
2022-11-14T19:37:48.520Z,17.10
2022-11-14T19:40:16.188Z,16.42
2022-11-14T19:42:43.908Z,16.55
2022-11-14T19:45:12.008Z,15.82
2022-11-14T19:47:39.627Z,17.45
2022-11-14T19:50:07.777Z,16.88
2022-11-14T19:52:36.784Z,19.17
2022-11-14T19:55:04.511Z,17.13
2022-11-14T19:57:32.284Z,18.33
2022-11-14T19:59:59.909Z,16.67
2022-11-14T20:02:28.901Z,17.92
2022-11-14T20:04:56.802Z,18.58
2022-11-14T20:07:26.944Z,17.20
2022-11-14T20:09:56.119Z,18.23
2022-11-14T20:12:23.722Z,19.33
2022-11-14T20:14:51.435Z,20.10
2022-11-14T20:17:19.120Z,16.60
2022-11-14T20:19:46.754Z,17.40
2022-11-14T20:22:14.572Z,19.48
2022-11-14T20:24:42.250Z,16.95
2022-11-14T20:27:11.210Z,18.67
2022-11-14T20:29:38.827Z,18.63
2022-11-14T20:32:09.423Z,18.73
2022-11-14T20:34:39.297Z,20.77
2022-11-14T20:37:11.693Z,17.52
2022-11-14T20:39:39.678Z,18.35
2022-11-14T20:42:07.481Z,18.95
2022-11-14T20:44:36.550Z,18.98
2022-11-14T20:47:08.362Z,18.67
2022-11-14T20:49:38.389Z,20.08
2022-11-14T20:52:06.617Z,19.80
2022-11-14T20:54:34.443Z,17.70
2022-11-14T20:57:02.278Z,18.92
2022-11-14T20:59:29.926Z,20.23
2022-11-14T21:01:59.222Z,21.23
2022-11-14T21:04:26.950Z,17.27
2022-11-14T21:06:54.712Z,17.75
2022-11-14T21:09:22.593Z,17.67
2022-11-14T21:11:50.299Z,19.50
2022-11-14T21:14:17.889Z,18.25
2022-11-14T21:16:45.695Z,17.27
2022-11-14T21:19:14.781Z,16.48
2022-11-14T21:21:42.496Z,17.90
2022-11-14T21:24:10.125Z,18.85
2022-11-14T21:26:38.644Z,19.30
2022-11-14T21:29:07.294Z,18.83
2022-11-14T21:31:35.726Z,17.70
2022-11-14T21:34:04.556Z,17.83
2022-11-14T21:36:49.152Z,17.67
2022-11-14T21:39:17.697Z,17.33
2022-11-14T21:41:48.422Z,17.63
2022-11-14T21:44:17.828Z,17.60
2022-11-14T21:46:47.162Z,16.52
2022-11-14T21:49:14.892Z,18.02
2022-11-14T21:51:43.874Z,15.70
2022-11-14T21:54:12.224Z,17.65
2022-11-14T21:56:39.817Z,18.58
2022-11-14T21:59:16.448Z,17.00
2022-11-14T22:02:02.711Z,16.45
2022-11-14T22:04:31.437Z,16.23
2022-11-14T22:07:00.744Z,18.42
2022-11-14T22:09:29.101Z,23.08
2022-11-14T22:11:56.836Z,24.23
2022-11-14T22:14:24.725Z,19.35
2022-11-14T22:16:52.426Z,18.48
2022-11-14T22:19:20.074Z,19.15
2022-11-14T22:21:47.842Z,23.58
2022-11-14T22:24:16.950Z,23.55
2022-11-14T22:26:44.550Z,18.85
2022-11-14T22:29:12.258Z,24.88
2022-11-14T22:31:39.865Z,21.10
2022-11-14T22:34:08.091Z,20.17
2022-11-14T22:36:36.594Z,17.98
2022-11-14T22:39:05.517Z,17.08
2022-11-14T22:41:34.484Z,19.17
2022-11-14T22:44:02.270Z,17.33
2022-11-14T22:46:30.282Z,16.25
2022-11-14T22:48:58.250Z,18.92
2022-11-14T22:51:26.482Z,16.05
2022-11-14T22:53:54.608Z,18.08
2022-11-14T22:56:22.869Z,17.05
2022-11-14T22:58:51.900Z,16.88
2022-11-14T23:01:20.389Z,17.23
2022-11-14T23:03:48.563Z,16.73
2022-11-14T23:06:17.012Z,16.33
2022-11-14T23:08:44.883Z,16.13
2022-11-14T23:11:14.130Z,15.77
2022-11-14T23:13:42.574Z,16.38
2022-11-14T23:16:11.960Z,16.73
2022-11-14T23:18:39.649Z,16.33
2022-11-14T23:21:07.917Z,14.15
2022-11-14T23:23:35.527Z,16.38
2022-11-14T23:26:03.712Z,17.20
2022-11-14T23:28:31.649Z,16.35
2022-11-14T23:30:59.571Z,16.83
2022-11-14T23:33:28.736Z,16.30
2022-11-14T23:35:56.574Z,14.98
2022-11-14T23:38:24.263Z,14.85
2022-11-14T23:40:55.000Z,14.50
2022-11-14T23:43:23.040Z,13.32
2022-11-14T23:45:50.656Z,16.13
2022-11-14T23:48:18.676Z,16.30
2022-11-14T23:50:50.248Z,14.57
2022-11-14T23:53:18.073Z,15.93
2022-11-14T23:55:52.020Z,14.00
2022-11-14T23:58:19.686Z,13.43
